createdAt,value
2018-09-11T00:02:01.861Z,16.10
2018-09-11T00:04:29.999Z,16.20
2018-09-11T00:06:58.107Z,16.20
2018-09-11T00:09:26.224Z,16.20
2018-09-11T00:11:54.389Z,16.20
2018-09-11T00:14:22.538Z,16.20
2018-09-11T00:16:50.651Z,16.20
2018-09-11T00:19:18.731Z,16.20
2018-09-11T00:21:46.855Z,16.20
2018-09-11T00:24:14.941Z,16.20
2018-09-11T00:26:43.058Z,16.20
2018-09-11T00:29:11.131Z,16.20
2018-09-11T00:31:39.270Z,16.20
2018-09-11T00:34:08.096Z,16.20
2018-09-11T00:36:36.271Z,16.20
2018-09-11T00:39:05.446Z,16.10
2018-09-11T00:41:33.589Z,16.00
2018-09-11T00:44:01.751Z,16.00
2018-09-11T00:46:29.950Z,16.00
2018-09-11T00:48:58.085Z,16.10
2018-09-11T00:51:26.202Z,16.20
2018-09-11T00:53:54.306Z,16.10
2018-09-11T00:56:22.444Z,16.10
2018-09-11T00:58:50.747Z,16.20
2018-09-11T01:01:18.875Z,16.10
2018-09-11T01:03:46.971Z,16.20
2018-09-11T01:06:15.127Z,16.20
2018-09-11T01:08:43.206Z,16.20
2018-09-11T01:11:11.290Z,16.40
2018-09-11T01:13:39.412Z,16.30
2018-09-11T01:16:08.803Z,16.30
2018-09-11T01:18:36.950Z,16.20
2018-09-11T01:21:05.101Z,16.20
2018-09-11T01:23:33.196Z,16.20
2018-09-11T01:26:01.354Z,16.10
2018-09-11T01:28:29.442Z,16.10
2018-09-11T01:30:57.561Z,16.20
2018-09-11T01:33:25.677Z,16.10
2018-09-11T01:35:53.865Z,16.10
2018-09-11T01:38:21.950Z,16.10
2018-09-11T01:40:50.138Z,16.10
2018-09-11T01:43:18.237Z,16.00
2018-09-11T01:45:46.518Z,16.00
2018-09-11T01:48:14.652Z,15.90
2018-09-11T01:50:42.778Z,15.90
2018-09-11T01:53:10.853Z,15.90
2018-09-11T01:55:38.924Z,15.90
2018-09-11T01:58:07.048Z,15.90
2018-09-11T02:00:35.129Z,15.90
2018-09-11T02:03:03.372Z,16.00
2018-09-11T02:05:31.475Z,15.90
2018-09-11T02:07:59.587Z,15.90
2018-09-11T02:10:27.766Z,15.90
2018-09-11T02:12:55.896Z,15.90
2018-09-11T02:15:24.075Z,16.00
2018-09-11T02:17:52.280Z,15.90
2018-09-11T02:20:20.463Z,15.90
2018-09-11T02:22:48.588Z,15.90
2018-09-11T02:25:16.648Z,15.90
2018-09-11T02:27:44.857Z,15.90
2018-09-11T02:30:13.006Z,16.00
2018-09-11T02:32:41.076Z,16.00
2018-09-11T02:35:09.279Z,16.10
2018-09-11T02:37:37.344Z,16.10
2018-09-11T02:40:05.572Z,16.20
2018-09-11T02:42:33.696Z,16.20
2018-09-11T02:45:01.796Z,16.20
2018-09-11T02:47:29.879Z,16.20
2018-09-11T02:49:57.982Z,16.20
2018-09-11T02:52:26.101Z,16.20
2018-09-11T02:54:54.295Z,16.20
2018-09-11T02:57:22.381Z,16.20
2018-09-11T02:59:50.547Z,16.20
2018-09-11T03:02:18.671Z,16.20
2018-09-11T03:04:46.792Z,16.20
2018-09-11T03:07:14.925Z,16.10
2018-09-11T03:09:43.037Z,16.20
2018-09-11T03:12:11.313Z,16.10
2018-09-11T03:14:39.391Z,16.20
2018-09-11T03:17:07.655Z,16.10
2018-09-11T03:19:35.805Z,16.10
2018-09-11T03:22:04.661Z,16.10
2018-09-11T03:24:32.793Z,16.10
2018-09-11T03:27:00.946Z,16.10
2018-09-11T03:29:29.076Z,16.00
2018-09-11T03:31:57.192Z,16.00
2018-09-11T03:34:25.318Z,16.00
2018-09-11T03:36:53.418Z,16.00
2018-09-11T03:39:21.539Z,16.00
2018-09-11T03:41:49.693Z,16.00
2018-09-11T03:44:17.909Z,15.90
2018-09-11T03:46:45.969Z,16.00
2018-09-11T03:49:14.060Z,16.00
2018-09-11T03:51:42.173Z,16.00
2018-09-11T03:54:10.291Z,16.00
2018-09-11T03:56:38.389Z,16.00
2018-09-11T03:59:06.528Z,16.00
2018-09-11T04:01:34.616Z,16.00
2018-09-11T04:04:02.747Z,16.00
2018-09-11T04:06:30.834Z,15.90
2018-09-11T04:08:58.989Z,15.90
2018-09-11T04:11:27.064Z,15.90
2018-09-11T04:13:55.183Z,15.80
2018-09-11T04:16:23.328Z,15.90
2018-09-11T04:18:51.472Z,15.90
2018-09-11T04:21:19.630Z,15.90
2018-09-11T04:23:47.850Z,15.90
2018-09-11T04:26:16.116Z,15.80
2018-09-11T04:28:44.313Z,15.80
2018-09-11T04:31:12.526Z,15.90
2018-09-11T04:33:40.701Z,15.80
2018-09-11T04:36:09.026Z,15.80
2018-09-11T04:38:37.346Z,15.80
2018-09-11T04:41:06.027Z,15.80
2018-09-11T04:43:34.193Z,15.80
2018-09-11T04:46:02.335Z,15.80
2018-09-11T04:48:30.587Z,15.80
2018-09-11T04:50:58.928Z,15.80
2018-09-11T04:53:27.119Z,15.80
2018-09-11T04:55:55.268Z,15.80
2018-09-11T04:58:23.405Z,15.90
2018-09-11T05:00:51.739Z,15.90
2018-09-11T05:03:19.879Z,15.90
2018-09-11T05:05:48.058Z,16.00
2018-09-11T05:08:16.175Z,16.00
2018-09-11T05:10:44.522Z,16.00
2018-09-11T05:13:12.704Z,16.10
2018-09-11T05:15:40.783Z,16.10
2018-09-11T05:18:08.954Z,16.10
2018-09-11T05:20:37.146Z,16.20
2018-09-11T05:23:05.435Z,16.30
2018-09-11T05:25:33.483Z,16.30
2018-09-11T05:28:01.612Z,16.40
2018-09-11T05:30:29.776Z,16.30
2018-09-11T05:32:58.847Z,16.40
2018-09-11T05:35:26.917Z,16.40
2018-09-11T05:37:54.984Z,16.50
2018-09-11T05:40:23.113Z,16.50
2018-09-11T05:42:51.207Z,16.50
2018-09-11T05:45:19.273Z,16.60
2018-09-11T05:47:47.568Z,16.70
2018-09-11T05:50:15.753Z,16.60
2018-09-11T05:52:43.823Z,16.70
2018-09-11T05:55:11.876Z,16.80
2018-09-11T05:57:39.914Z,16.90
2018-09-11T06:00:08.082Z,17.00
2018-09-11T06:02:36.148Z,17.10
2018-09-11T06:05:04.629Z,17.10
2018-09-11T06:07:32.708Z,17.20
2018-09-11T06:10:00.767Z,17.30
2018-09-11T06:12:28.822Z,17.40
2018-09-11T06:14:56.954Z,17.50
2018-09-11T06:17:25.220Z,17.60
2018-09-11T06:19:54.024Z,17.70
2018-09-11T06:22:22.172Z,17.80
2018-09-11T06:24:50.317Z,17.90
2018-09-11T06:27:18.412Z,18.10
2018-09-11T06:29:46.563Z,18.50
2018-09-11T06:32:14.620Z,18.80
2018-09-11T06:34:42.720Z,18.90
2018-09-11T06:37:10.780Z,19.20
2018-09-11T06:39:38.837Z,19.30
2018-09-11T06:42:06.616Z,19.40
2018-09-11T06:44:34.737Z,19.50
2018-09-11T06:47:02.849Z,19.50
2018-09-11T06:49:30.876Z,19.50
2018-09-11T06:51:58.975Z,19.70
2018-09-11T06:54:26.999Z,19.70
2018-09-11T06:56:55.045Z,19.80
2018-09-11T06:59:23.124Z,19.70
2018-09-11T07:01:51.274Z,19.90
2018-09-11T07:04:19.328Z,20.00
2018-09-11T07:06:47.450Z,20.20
2018-09-11T07:09:15.523Z,20.50
2018-09-11T07:11:43.621Z,20.50
2018-09-11T07:14:11.780Z,20.60
2018-09-11T07:16:39.859Z,20.70
2018-09-11T07:19:07.959Z,20.90
2018-09-11T07:21:36.024Z,20.90
2018-09-11T07:24:04.095Z,21.20
2018-09-11T07:26:32.202Z,21.50
2018-09-11T07:29:00.451Z,21.60
2018-09-11T07:31:28.539Z,22.00
2018-09-11T07:33:56.576Z,22.70
2018-09-11T07:36:24.648Z,23.00
2018-09-11T07:38:52.732Z,23.60
2018-09-11T07:41:20.787Z,23.80
2018-09-11T07:43:48.876Z,23.90
2018-09-11T07:46:16.986Z,24.10
2018-09-11T07:48:45.550Z,23.90
2018-09-11T07:51:13.666Z,24.00
2018-09-11T07:53:41.729Z,24.00
2018-09-11T07:56:09.802Z,24.40
2018-09-11T07:58:37.852Z,24.90
2018-09-11T08:01:05.999Z,25.40
2018-09-11T08:03:34.079Z,26.00
2018-09-11T08:06:02.135Z,26.00
2018-09-11T08:08:30.544Z,26.10
2018-09-11T08:10:58.583Z,26.30
2018-09-11T08:13:26.714Z,26.40
2018-09-11T08:15:54.800Z,26.10
2018-09-11T08:18:22.892Z,26.20
2018-09-11T08:20:51.058Z,26.70
2018-09-11T08:23:19.162Z,27.30
2018-09-11T08:25:47.270Z,27.20
2018-09-11T08:28:15.376Z,26.80
2018-09-11T08:30:43.444Z,27.20
2018-09-11T08:33:11.516Z,27.70
2018-09-11T08:35:39.730Z,28.30
2018-09-11T08:38:07.841Z,27.80
2018-09-11T08:40:35.926Z,28.10
2018-09-11T08:43:03.987Z,29.30
2018-09-11T08:45:32.069Z,29.00
2018-09-11T08:48:00.140Z,29.10
2018-09-11T08:50:28.252Z,28.70
2018-09-11T08:52:56.420Z,29.20
2018-09-11T08:55:24.469Z,29.70
2018-09-11T08:57:52.528Z,30.30
2018-09-11T09:00:20.597Z,29.40
2018-09-11T09:02:49.340Z,29.90
2018-09-11T09:05:17.471Z,30.40
2018-09-11T09:07:45.621Z,30.90
2018-09-11T09:10:13.755Z,31.90
2018-09-11T09:12:41.809Z,32.20
2018-09-11T09:15:09.896Z,32.80
2018-09-11T09:17:37.986Z,32.80
2018-09-11T09:20:06.121Z,32.00
2018-09-11T09:22:34.211Z,31.80
2018-09-11T09:25:02.309Z,31.90
2018-09-11T09:27:30.432Z,32.00
2018-09-11T09:29:58.559Z,31.60
2018-09-11T09:32:26.642Z,31.40
2018-09-11T09:34:55.858Z,31.30
2018-09-11T09:37:24.029Z,31.60
2018-09-11T09:39:52.077Z,31.90
2018-09-11T09:42:20.151Z,32.00
2018-09-11T09:44:48.232Z,32.60
2018-09-11T09:47:16.345Z,32.00
2018-09-11T09:49:44.407Z,31.50
2018-09-11T09:52:12.463Z,31.50
2018-09-11T09:54:40.551Z,31.40
2018-09-11T09:57:08.681Z,31.70
2018-09-11T09:59:36.776Z,31.90
2018-09-11T10:02:09.464Z,31.70
2018-09-11T10:04:37.702Z,31.90
2018-09-11T10:07:05.804Z,31.20
2018-09-11T10:09:33.884Z,31.10
2018-09-11T10:12:02.028Z,31.00
2018-09-11T10:14:30.120Z,31.60
2018-09-11T10:16:58.218Z,31.50
2018-09-11T10:19:26.378Z,31.50
2018-09-11T10:21:54.459Z,31.20
2018-09-11T10:24:22.665Z,31.90
2018-09-11T10:26:50.768Z,32.50
2018-09-11T10:29:18.854Z,33.30
2018-09-11T10:31:46.924Z,33.30
2018-09-11T10:34:15.040Z,33.10
2018-09-11T10:36:43.275Z,33.50
2018-09-11T10:39:11.383Z,33.80
2018-09-11T10:41:39.463Z,34.20
2018-09-11T10:44:07.526Z,34.40
2018-09-11T10:46:35.604Z,34.00
2018-09-11T10:49:03.719Z,33.70
2018-09-11T10:51:31.896Z,34.40
2018-09-11T10:53:59.998Z,34.70
2018-09-11T10:56:28.236Z,34.10
2018-09-11T10:58:56.332Z,33.90
2018-09-11T11:01:24.377Z,34.30
2018-09-11T11:03:52.560Z,34.40
2018-09-11T11:06:20.637Z,34.80
2018-09-11T11:08:48.758Z,33.80
2018-09-11T11:11:16.831Z,34.50
2018-09-11T11:13:44.938Z,34.90
2018-09-11T11:16:12.990Z,36.00
2018-09-11T11:18:41.082Z,36.60
2018-09-11T11:21:09.155Z,37.90
2018-09-11T11:23:37.201Z,38.20
2018-09-11T11:26:05.427Z,39.10
2018-09-11T11:28:34.377Z,39.40
2018-09-11T11:31:03.649Z,39.60
2018-09-11T11:33:31.716Z,39.10
2018-09-11T11:35:59.875Z,38.90
2018-09-11T11:38:28.036Z,39.90
2018-09-11T11:40:56.189Z,39.90
2018-09-11T11:43:24.796Z,39.00
2018-09-11T11:45:53.641Z,39.50
2018-09-11T11:48:22.496Z,39.80
2018-09-11T11:50:50.533Z,39.70
2018-09-11T11:53:18.717Z,39.20
2018-09-11T11:55:46.844Z,39.30
2018-09-11T11:58:14.941Z,39.10
2018-09-11T12:00:42.988Z,38.80
2018-09-11T12:03:11.091Z,40.30
2018-09-11T12:05:39.254Z,40.20
2018-09-11T12:08:08.101Z,39.80
2018-09-11T12:10:36.209Z,39.70
2018-09-11T12:13:04.308Z,39.70
2018-09-11T12:15:32.396Z,40.40
2018-09-11T12:18:00.505Z,39.60
2018-09-11T12:20:28.626Z,39.90
2018-09-11T12:22:56.755Z,40.10
2018-09-11T12:25:24.883Z,40.00
2018-09-11T12:27:52.946Z,39.50
2018-09-11T12:30:21.108Z,40.10
2018-09-11T12:32:49.271Z,40.00
2018-09-11T12:35:17.426Z,40.10
2018-09-11T12:37:45.573Z,39.70
2018-09-11T12:40:13.663Z,39.90
2018-09-11T12:42:41.878Z,39.50
2018-09-11T12:45:09.998Z,39.40
2018-09-11T12:47:38.641Z,39.20
2018-09-11T12:50:06.202Z,38.90
2018-09-11T12:52:34.383Z,38.70
2018-09-11T12:55:02.417Z,38.60
2018-09-11T12:57:30.494Z,38.70
2018-09-11T12:59:58.541Z,38.60
2018-09-11T13:02:26.650Z,38.60
2018-09-11T13:04:54.726Z,38.20
2018-09-11T13:07:22.794Z,37.80
2018-09-11T13:09:50.875Z,37.50
2018-09-11T13:12:19.114Z,37.30
2018-09-11T13:14:47.197Z,37.30
2018-09-11T13:17:15.284Z,37.60
2018-09-11T13:19:43.335Z,37.60
2018-09-11T13:22:11.606Z,37.80
2018-09-11T13:24:39.734Z,38.30
2018-09-11T13:27:08.200Z,38.40
2018-09-11T13:29:36.364Z,37.90
2018-09-11T13:32:04.475Z,38.30
2018-09-11T13:34:32.628Z,38.30
2018-09-11T13:37:00.711Z,38.00
2018-09-11T13:39:28.760Z,37.30
2018-09-11T13:41:56.912Z,36.90
2018-09-11T13:44:24.942Z,36.60
2018-09-11T13:46:53.089Z,36.20
2018-09-11T13:49:21.126Z,36.30
2018-09-11T13:51:49.218Z,36.90
2018-09-11T13:54:17.288Z,37.20
2018-09-11T13:56:45.442Z,37.70
2018-09-11T13:59:13.506Z,37.40
2018-09-11T14:01:41.557Z,36.00
2018-09-11T14:04:09.625Z,34.80
2018-09-11T14:06:37.773Z,34.70
2018-09-11T14:09:09.112Z,35.10
2018-09-11T14:11:37.269Z,35.60
2018-09-11T14:14:05.462Z,35.30
2018-09-11T14:16:33.845Z,35.20
2018-09-11T14:19:01.951Z,35.60
2018-09-11T14:21:30.056Z,35.40
2018-09-11T14:23:58.169Z,34.60
2018-09-11T14:26:26.275Z,33.50
2018-09-11T14:28:54.363Z,33.10
2018-09-11T14:31:22.467Z,32.70
2018-09-11T14:33:50.636Z,32.20
2018-09-11T14:36:18.839Z,32.00
2018-09-11T14:38:46.959Z,31.90
2018-09-11T14:41:15.065Z,31.60
2018-09-11T14:43:43.182Z,31.20
2018-09-11T14:46:11.307Z,31.00
2018-09-11T14:48:39.366Z,31.00
2018-09-11T14:51:07.502Z,30.90
2018-09-11T14:53:35.576Z,30.80
2018-09-11T14:56:03.985Z,30.60
2018-09-11T14:58:32.763Z,30.40
2018-09-11T15:01:00.853Z,30.20
2018-09-11T15:03:28.929Z,30.30
2018-09-11T15:05:57.321Z,30.40
2018-09-11T15:08:25.510Z,30.30
2018-09-11T15:10:53.687Z,30.10
2018-09-11T15:13:21.823Z,30.10
2018-09-11T15:15:50.054Z,30.10
2018-09-11T15:18:18.160Z,29.80
2018-09-11T15:20:46.364Z,29.80
2018-09-11T15:23:14.528Z,29.60
2018-09-11T15:25:42.659Z,29.40
2018-09-11T15:28:10.837Z,29.30
2018-09-11T15:30:38.972Z,29.20
2018-09-11T15:33:07.489Z,29.00
2018-09-11T15:35:36.297Z,28.90
2018-09-11T15:38:04.370Z,28.70
2018-09-11T15:40:32.485Z,28.60
2018-09-11T15:43:00.589Z,28.40
2018-09-11T15:45:28.671Z,28.30
2018-09-11T15:47:56.788Z,28.30
2018-09-11T15:50:24.885Z,28.20
2018-09-11T15:52:52.942Z,28.20
2018-09-11T15:55:21.021Z,28.10
2018-09-11T15:57:49.112Z,27.90
2018-09-11T16:00:17.221Z,27.80
2018-09-11T16:02:46.612Z,27.80
2018-09-11T16:05:14.752Z,27.80
2018-09-11T16:07:42.835Z,27.70
2018-09-11T16:10:10.941Z,27.50
2018-09-11T16:12:38.999Z,27.40
2018-09-11T16:15:07.281Z,27.30
2018-09-11T16:17:35.324Z,27.20
2018-09-11T16:20:03.525Z,27.10
2018-09-11T16:22:31.649Z,26.90
2018-09-11T16:24:59.791Z,26.80
2018-09-11T16:27:27.976Z,26.70
2018-09-11T16:29:56.862Z,26.50
2018-09-11T16:32:24.870Z,26.40
2018-09-11T16:34:52.966Z,26.20
2018-09-11T16:37:21.071Z,26.10
2018-09-11T16:39:49.562Z,25.90
2018-09-11T16:42:17.692Z,25.70
2018-09-11T16:44:45.810Z,25.60
2018-09-11T16:47:13.903Z,25.50
2018-09-11T16:49:42.069Z,25.30
2018-09-11T16:52:10.322Z,25.10
2018-09-11T16:54:38.450Z,24.90
2018-09-11T16:57:06.562Z,24.70
2018-09-11T16:59:34.713Z,24.60
2018-09-11T17:02:02.888Z,24.40
2018-09-11T17:04:30.971Z,24.30
2018-09-11T17:06:59.021Z,24.20
2018-09-11T17:09:27.094Z,24.10
2018-09-11T17:11:55.149Z,24.00
2018-09-11T17:14:23.267Z,23.80
2018-09-11T17:16:51.567Z,23.80
2018-09-11T17:19:19.642Z,23.70
2018-09-11T17:21:47.885Z,23.50
2018-09-11T17:24:16.001Z,23.40
2018-09-11T17:26:44.173Z,23.40
2018-09-11T17:29:12.316Z,23.30
2018-09-11T17:31:40.462Z,23.20
2018-09-11T17:34:08.576Z,23.00
2018-09-11T17:36:36.705Z,23.00
2018-09-11T17:39:07.994Z,22.90
2018-09-11T17:41:36.090Z,22.60
2018-09-11T17:44:04.176Z,22.60
2018-09-11T17:46:32.389Z,22.50
2018-09-11T17:49:00.535Z,22.50
2018-09-11T17:51:28.502Z,22.40
2018-09-11T17:53:56.657Z,22.30
2018-09-11T17:56:24.723Z,22.20
2018-09-11T17:58:52.819Z,22.20
2018-09-11T18:01:20.932Z,22.10
2018-09-11T18:03:49.037Z,22.10
2018-09-11T18:06:17.141Z,22.00
2018-09-11T18:08:45.248Z,21.90
2018-09-11T18:11:13.370Z,21.80
2018-09-11T18:13:42.246Z,21.80
2018-09-11T18:16:10.366Z,21.70
2018-09-11T18:18:38.509Z,21.60
2018-09-11T18:21:06.660Z,21.50
2018-09-11T18:23:34.943Z,21.40
2018-09-11T18:26:03.209Z,21.30
2018-09-11T18:28:31.314Z,21.20
2018-09-11T18:30:59.723Z,21.20
2018-09-11T18:33:27.816Z,21.10
2018-09-11T18:35:56.035Z,21.00
2018-09-11T18:38:24.213Z,21.00
2018-09-11T18:40:52.399Z,20.90
2018-09-11T18:43:20.526Z,20.90
2018-09-11T18:45:48.642Z,20.80
2018-09-11T18:48:16.734Z,20.80
2018-09-11T18:50:44.787Z,20.70
2018-09-11T18:53:12.852Z,20.60
2018-09-11T18:55:40.966Z,20.60
2018-09-11T18:58:09.175Z,20.50
2018-09-11T19:00:37.260Z,20.50
2018-09-11T19:03:05.431Z,20.50
2018-09-11T19:05:33.571Z,20.40
2018-09-11T19:08:01.881Z,20.40
2018-09-11T19:10:30.454Z,20.30
2018-09-11T19:12:58.643Z,20.20
2018-09-11T19:15:26.767Z,20.20
2018-09-11T19:17:54.867Z,20.10
2018-09-11T19:20:24.261Z,20.10
2018-09-11T19:22:52.513Z,20.00
2018-09-11T19:25:20.658Z,20.00
2018-09-11T19:27:49.009Z,20.00
2018-09-11T19:30:17.097Z,19.90
2018-09-11T19:32:45.212Z,19.80
2018-09-11T19:35:13.364Z,19.80
2018-09-11T19:37:41.567Z,19.80
2018-09-11T19:40:09.739Z,19.70
2018-09-11T19:42:37.862Z,19.60
2018-09-11T19:45:06.271Z,19.60
2018-09-11T19:47:34.452Z,19.60
2018-09-11T19:50:02.646Z,19.50
2018-09-11T19:52:30.713Z,19.50
2018-09-11T19:54:58.818Z,19.40
2018-09-11T19:57:27.190Z,19.40
2018-09-11T19:59:55.347Z,19.40
2018-09-11T20:02:25.186Z,19.30
2018-09-11T20:04:53.352Z,19.30
2018-09-11T20:07:21.627Z,19.30
2018-09-11T20:09:49.691Z,19.10
2018-09-11T20:12:17.913Z,19.00
2018-09-11T20:14:46.056Z,19.00
2018-09-11T20:17:14.192Z,19.00
2018-09-11T20:19:42.292Z,18.90
2018-09-11T20:22:11.377Z,18.90
2018-09-11T20:24:39.491Z,18.90
2018-09-11T20:27:07.998Z,18.80
2018-09-11T20:29:36.133Z,18.80
2018-09-11T20:32:04.269Z,18.80
2018-09-11T20:34:32.482Z,18.80
2018-09-11T20:37:00.579Z,18.80
2018-09-11T20:39:28.713Z,18.80
2018-09-11T20:41:56.846Z,18.80
2018-09-11T20:44:24.932Z,18.80
2018-09-11T20:46:53.025Z,18.90
2018-09-11T20:49:21.129Z,18.90
2018-09-11T20:51:49.278Z,18.80
2018-09-11T20:54:17.403Z,18.70
2018-09-11T20:56:45.572Z,18.60
2018-09-11T20:59:13.667Z,18.60
2018-09-11T21:01:41.715Z,18.50
2018-09-11T21:04:09.833Z,18.50
2018-09-11T21:06:37.908Z,18.50
2018-09-11T21:09:07.394Z,18.40
2018-09-11T21:11:35.743Z,18.40
2018-09-11T21:14:04.724Z,18.40
2018-09-11T21:16:33.253Z,18.40
2018-09-11T21:19:01.420Z,18.40
2018-09-11T21:21:29.568Z,18.30
2018-09-11T21:23:57.664Z,18.30
2018-09-11T21:26:25.784Z,18.30
2018-09-11T21:28:53.914Z,18.30
2018-09-11T21:31:22.008Z,18.30
2018-09-11T21:33:50.076Z,18.20
2018-09-11T21:36:18.280Z,18.10
2018-09-11T21:38:46.424Z,18.00
2018-09-11T21:41:14.570Z,18.00
2018-09-11T21:43:42.662Z,17.90
2018-09-11T21:46:10.767Z,17.90
2018-09-11T21:48:39.138Z,17.90
2018-09-11T21:51:07.980Z,17.90
2018-09-11T21:53:36.119Z,17.90
2018-09-11T21:56:04.347Z,17.90
2018-09-11T21:58:32.732Z,17.80
2018-09-11T22:01:07.224Z,17.80
2018-09-11T22:03:35.305Z,17.80
2018-09-11T22:06:03.458Z,17.70
2018-09-11T22:08:31.658Z,17.60
2018-09-11T22:10:59.774Z,17.50
2018-09-11T22:13:28.094Z,17.50
2018-09-11T22:15:56.289Z,17.50
2018-09-11T22:18:24.399Z,17.50
2018-09-11T22:20:52.532Z,17.50
2018-09-11T22:23:20.712Z,17.50
2018-09-11T22:25:48.845Z,17.60
2018-09-11T22:28:16.918Z,17.60
2018-09-11T22:30:45.026Z,17.50
2018-09-11T22:33:13.177Z,17.50
2018-09-11T22:35:41.336Z,17.40
2018-09-11T22:38:09.522Z,17.40
2018-09-11T22:40:37.648Z,17.40
2018-09-11T22:43:06.183Z,17.30
2018-09-11T22:45:34.424Z,17.20
2018-09-11T22:48:02.523Z,17.20
2018-09-11T22:50:30.732Z,17.20
2018-09-11T22:52:58.821Z,17.10
2018-09-11T22:55:26.924Z,17.20
2018-09-11T22:57:55.040Z,17.10
2018-09-11T23:00:23.198Z,17.10
2018-09-11T23:02:51.253Z,17.10
2018-09-11T23:05:19.389Z,17.00
2018-09-11T23:07:47.531Z,17.00
2018-09-11T23:10:15.687Z,17.00
2018-09-11T23:12:43.806Z,16.90
2018-09-11T23:15:12.007Z,16.90
2018-09-11T23:17:40.173Z,16.90
2018-09-11T23:20:08.329Z,16.80
2018-09-11T23:22:36.457Z,16.80
2018-09-11T23:25:04.596Z,16.80
2018-09-11T23:27:32.689Z,16.80
2018-09-11T23:30:00.846Z,16.80
2018-09-11T23:32:28.970Z,16.60
2018-09-11T23:34:57.070Z,16.60
2018-09-11T23:37:25.183Z,16.60
2018-09-11T23:39:53.391Z,16.60
2018-09-11T23:42:21.534Z,16.60
2018-09-11T23:44:49.629Z,16.60
2018-09-11T23:47:17.789Z,16.60
2018-09-11T23:49:45.894Z,16.60
2018-09-11T23:52:14.008Z,16.50
2018-09-11T23:54:42.104Z,16.50
2018-09-11T23:57:10.164Z,16.40
2018-09-11T23:59:38.332Z,16.40
